Arctic Bay — 9HTD8 — position and weather

sailwx.info

Track history (hours):
 
Tides and Currents Weather Stations Pressure Air Temp Water Temp Dewpoint Dewpoint Depression Visibility Wind Speed Wind Dir Waves Ship Positions

Arctic Bay

Last reported at 2014-Oct-21 17:33 UTC. Time now 2014-Oct-21 18:20 UTC.
Position N 51°39' E 002°15'.

Length 182 m; draft 11.5 m.

Type: Ship. MMSI: 256396000.

Date/timePositionNaut miles runAvg speedWind from/ knotsBaromVisibWave heightAir tempDewpointWater temp
2014-Oct-21 17:33N 51°39' E 002°15'10 9.6
2014-Oct-21 16:33N 51°47' E 002°24'18 9.1
2014-Oct-21 14:33N 52°03' E 002°37'153 9.9
2014-Oct-20 23:07N 54°19' E 004°32'610.7
2014-Oct-20 22:32N 54°25' E 004°37'199 9.0
2014-Oct-20 00:33N 57°11' E 007°50'7 6.7
2014-Oct-19 23:33N 57°15' E 007°60'8 8.2
2014-Oct-19 22:33N 57°20' E 008°12'9 9.2
2014-Oct-19 21:33N 57°26' E 008°25'9 9.4
2014-Oct-19 20:33N 57°31' E 008°40'9 9.4
2014-Oct-19 19:33N 57°35' E 008°57'3210.2
2014-Oct-19 16:26N 57°46' E 009°52'1011.7
2014-Oct-19 15:33N 57°49' E 010°10'1111.2
2014-Oct-19 14:34N 57°48' E 010°31'10 9.8
2014-Oct-19 13:33N 57°46' E 010°49'8 7.9
2014-Oct-19 12:33N 57°40' E 010°39'0 0.2
2014-Oct-19 11:33N 57°41' E 010°39'0 0.0
2014-Oct-19 10:27N 57°41' E 010°39'0 0.0
2014-Oct-19 07:30N 57°41' E 010°39'0 0.0
2014-Oct-19 06:33N 57°41' E 010°39'0 0.0
2014-Oct-19 05:33N 57°41' E 010°39'3 3.1
2014-Oct-19 04:33N 57°39' E 010°44'1211.8
2014-Oct-19 03:33N 57°34' E 011°04'1212.3
2014-Oct-19 02:33N 57°28' E 011°24'1312.6
2014-Oct-19 01:33N 57°17' E 011°33'1512.5
2014-Oct-19 00:22N 57°03' E 011°42'1012.7
2014-Oct-18 23:33N 56°53' E 011°49'1211.9
2014-Oct-18 22:33N 56°41' E 011°50'11811.7
2014-Oct-18 12:27N 54°48' E 010°50'1010.1
2014-Oct-18 11:28N 54°38' E 010°54'2412.8
2014-Oct-18 09:33N 54°29' E 011°33'1313.3
2014-Oct-18 08:33N 54°26' E 011°55'8211.8
2014-Oct-18 01:33N 55°04' E 014°02'1212.2
2014-Oct-18 00:33N 55°13' E 014°16'1212.3
2014-Oct-17 23:33N 55°22' E 014°30'1212.1
2014-Oct-17 22:33N 55°29' E 014°47'1212.3
2014-Oct-17 21:33N 55°35' E 015°07'36111.7
2014-Oct-16 14:33N 59°38' E 023°26'1313.3
2014-Oct-16 13:33N 59°42' E 023°51'1412.8
2014-Oct-16 12:28N 59°46' E 024°18'1212.6
2014-Oct-16 11:33N 59°48' E 024°40'5612.5
2014-Oct-16 07:05N 60°01' E 026°29'712.3
2014-Oct-16 06:33N 60°01' E 026°42'22 0.5
2014-Oct-14 12:15N 60°04' E 027°25'1212.1
2014-Oct-14 11:15N 59°58' E 027°04'811.5
2014-Oct-14 10:32N 59°59' E 026°48'6412.4
2014-Oct-14 05:24N 59°46' E 024°44'1412.5
2014-Oct-14 04:15N 59°42' E 024°16'812.2
2014-Oct-14 03:33N 59°39' E 024°00'1212.0
2014-Oct-14 02:34N 59°35' E 023°38'31712.1
2014-Oct-13 00:23N 55°57' E 016°28'1112.3
2014-Oct-12 23:31N 55°53' E 016°11'6412.4
2014-Oct-12 18:19N 55°20' E 014°33'1012.4
2014-Oct-12 17:31N 55°12' E 014°21'4912.5
2014-Oct-12 13:33N 55°14' E 012°55'1111.2
2014-Oct-12 12:33N 55°20' E 012°38'1212.3
2014-Oct-12 11:34N 55°32' E 012°42'1110.9
2014-Oct-12 10:33N 55°43' E 012°41'1212.1
2014-Oct-12 09:33N 55°55' E 012°39'1110.9
2014-Oct-12 08:33N 56°06' E 012°35'1110.6
2014-Oct-12 07:33N 56°12' E 012°19'1110.9
2014-Oct-12 06:33N 56°18' E 012°04'1312.6
2014-Oct-12 05:33N 56°31' E 011°59'1212.0
2014-Oct-12 04:33N 56°42' E 011°53'1212.1
2014-Oct-12 03:33N 56°54' E 011°46'1413.8
2014-Oct-12 02:33N 57°07' E 011°38'1212.3
2014-Oct-12 01:33N 57°18' E 011°30'1212.0
2014-Oct-12 00:33N 57°29' E 011°21'1212.4
2014-Oct-11 23:33N 57°37' E 011°04'1211.9
2014-Oct-11 22:33N 57°46' E 010°48'1212.0
2014-Oct-11 21:33N 57°47' E 010°26'1312.8
2014-Oct-11 20:33N 57°47' E 010°02'1312.1
2014-Oct-11 19:31N 57°44' E 009°39'1212.5
2014-Oct-11 18:33N 57°39' E 009°18'  
Track history (hours):
 
Tides and Currents Weather Stations Pressure Air Temp Water Temp Dewpoint Dewpoint Depression Visibility Wind Speed Wind Dir Waves Ship Positions

Arctic Bay

Last reported at 2014-Oct-21 17:33 UTC. Time now 2014-Oct-21 18:20 UTC.
Position N 51°39' E 002°15'.

Length 182 m; draft 11.5 m.

Type: Ship. MMSI: 256396000.

Date/timePositionNaut miles runAvg speedWind from/ knotsBaromVisibWave heightAir tempDewpointWater temp
2014-Oct-21 17:33N 51°39' E 002°15'10 9.6
2014-Oct-21 16:33N 51°47' E 002°24'18 9.1
2014-Oct-21 14:33N 52°03' E 002°37'153 9.9
2014-Oct-20 23:07N 54°19' E 004°32'610.7
2014-Oct-20 22:32N 54°25' E 004°37'199 9.0
2014-Oct-20 00:33N 57°11' E 007°50'7 6.7
2014-Oct-19 23:33N 57°15' E 007°60'8 8.2
2014-Oct-19 22:33N 57°20' E 008°12'9 9.2
2014-Oct-19 21:33N 57°26' E 008°25'9 9.4
2014-Oct-19 20:33N 57°31' E 008°40'9 9.4
2014-Oct-19 19:33N 57°35' E 008°57'3210.2
2014-Oct-19 16:26N 57°46' E 009°52'1011.7
2014-Oct-19 15:33N 57°49' E 010°10'1111.2
2014-Oct-19 14:34N 57°48' E 010°31'10 9.8
2014-Oct-19 13:33N 57°46' E 010°49'8 7.9
2014-Oct-19 12:33N 57°40' E 010°39'0 0.2
2014-Oct-19 11:33N 57°41' E 010°39'0 0.0
2014-Oct-19 10:27N 57°41' E 010°39'0 0.0
2014-Oct-19 07:30N 57°41' E 010°39'0 0.0
2014-Oct-19 06:33N 57°41' E 010°39'0 0.0
2014-Oct-19 05:33N 57°41' E 010°39'3 3.1
2014-Oct-19 04:33N 57°39' E 010°44'1211.8
2014-Oct-19 03:33N 57°34' E 011°04'1212.3
2014-Oct-19 02:33N 57°28' E 011°24'1312.6
2014-Oct-19 01:33N 57°17' E 011°33'1512.5
2014-Oct-19 00:22N 57°03' E 011°42'1012.7
2014-Oct-18 23:33N 56°53' E 011°49'1211.9
2014-Oct-18 22:33N 56°41' E 011°50'11811.7
2014-Oct-18 12:27N 54°48' E 010°50'1010.1
2014-Oct-18 11:28N 54°38' E 010°54'2412.8
2014-Oct-18 09:33N 54°29' E 011°33'1313.3
2014-Oct-18 08:33N 54°26' E 011°55'8211.8
2014-Oct-18 01:33N 55°04' E 014°02'1212.2
2014-Oct-18 00:33N 55°13' E 014°16'1212.3
2014-Oct-17 23:33N 55°22' E 014°30'1212.1
2014-Oct-17 22:33N 55°29' E 014°47'1212.3
2014-Oct-17 21:33N 55°35' E 015°07'36111.7
2014-Oct-16 14:33N 59°38' E 023°26'1313.3
2014-Oct-16 13:33N 59°42' E 023°51'1412.8
2014-Oct-16 12:28N 59°46' E 024°18'1212.6
2014-Oct-16 11:33N 59°48' E 024°40'5612.5
2014-Oct-16 07:05N 60°01' E 026°29'712.3
2014-Oct-16 06:33N 60°01' E 026°42'22 0.5
2014-Oct-14 12:15N 60°04' E 027°25'1212.1
2014-Oct-14 11:15N 59°58' E 027°04'811.5
2014-Oct-14 10:32N 59°59' E 026°48'6412.4
2014-Oct-14 05:24N 59°46' E 024°44'1412.5
2014-Oct-14 04:15N 59°42' E 024°16'812.2
2014-Oct-14 03:33N 59°39' E 024°00'1212.0
2014-Oct-14 02:34N 59°35' E 023°38'31712.1
2014-Oct-13 00:23N 55°57' E 016°28'1112.3
2014-Oct-12 23:31N 55°53' E 016°11'6412.4
2014-Oct-12 18:19N 55°20' E 014°33'1012.4
2014-Oct-12 17:31N 55°12' E 014°21'4912.5
2014-Oct-12 13:33N 55°14' E 012°55'1111.2
2014-Oct-12 12:33N 55°20' E 012°38'1212.3
2014-Oct-12 11:34N 55°32' E 012°42'1110.9
2014-Oct-12 10:33N 55°43' E 012°41'1212.1
2014-Oct-12 09:33N 55°55' E 012°39'1110.9
2014-Oct-12 08:33N 56°06' E 012°35'1110.6
2014-Oct-12 07:33N 56°12' E 012°19'1110.9
2014-Oct-12 06:33N 56°18' E 012°04'1312.6
2014-Oct-12 05:33N 56°31' E 011°59'1212.0
2014-Oct-12 04:33N 56°42' E 011°53'1212.1
2014-Oct-12 03:33N 56°54' E 011°46'1413.8
2014-Oct-12 02:33N 57°07' E 011°38'1212.3
2014-Oct-12 01:33N 57°18' E 011°30'1212.0
2014-Oct-12 00:33N 57°29' E 011°21'1212.4
2014-Oct-11 23:33N 57°37' E 011°04'1211.9
2014-Oct-11 22:33N 57°46' E 010°48'1212.0
2014-Oct-11 21:33N 57°47' E 010°26'1312.8
2014-Oct-11 20:33N 57°47' E 010°02'1312.1
2014-Oct-11 19:31N 57°44' E 009°39'1212.5
2014-Oct-11 18:33N 57°39' E 009°18'  

Dump ship's entire track history